Time;durP1;ratioP1;P1;durP2;ratioP2;P2;SDS_P1;SDS_P2;PMS_P1;PMS_P2;Temp;Humidity;BMP_temperature;BMP_pressure;BME280_temperature;BME280_humidity;BME280_pressure;Samples;Min_cycle;Max_cycle;Signal;HPM_P1;HPM_P2
2021/01/17 00:00:32;;;;;;;42.27;24.53;;;;;;;-5.14;100.00;98479.13;2081391;28;20302;-79
2021/01/17 00:01:34;;;;;;;35.70;24.20;;;;;;;-5.24;100.00;98463.97;2080572;28;20333;-80
2021/01/17 00:02:35;;;;;;;47.45;26.02;;;;;;;-5.15;100.00;98477.53;2079949;28;20227;-79
2021/01/17 00:03:36;;;;;;;45.65;27.38;;;;;;;-5.16;100.00;98483.75;2080813;28;20238;-80
2021/01/17 00:04:38;;;;;;;36.17;26.50;;;;;;;-5.13;100.00;98491.13;2072135;28;20701;-80
2021/01/17 00:05:41;;;;;;;42.20;26.50;;;;;;;-5.25;100.00;98477.19;2080744;28;20682;-80
2021/01/17 00:06:41;;;;;;;43.25;25.80;;;;;;;-5.14;100.00;98484.31;2081686;28;23602;-80
2021/01/17 00:07:43;;;;;;;47.07;28.73;;;;;;;-5.23;100.00;98459.56;2080661;28;20590;-80
2021/01/17 00:08:44;;;;;;;45.28;27.48;;;;;;;-5.24;100.00;98463.97;2080794;28;20603;-80
2021/01/17 00:09:45;;;;;;;44.70;25.93;;;;;;;-5.14;100.00;98479.91;2081331;28;20242;-80
2021/01/17 00:10:46;;;;;;;43.53;26.58;;;;;;;-5.18;100.00;98475.34;2081385;28;20763;-81
2021/01/17 00:11:49;;;;;;;49.92;26.20;;;;;;;-5.15;100.00;98480.94;2080552;28;20635;-81
2021/01/17 00:12:51;;;;;;;39.55;24.35;;;;;;;-5.12;100.00;98483.13;2080663;28;20227;-81
2021/01/17 00:13:52;;;;;;;41.22;25.58;;;;;;;-5.11;100.00;98478.72;2080366;28;20234;-81
2021/01/17 00:14:53;;;;;;;39.08;25.90;;;;;;;-5.07;100.00;98474.69;2080872;28;20231;-81
2021/01/17 00:15:54;;;;;;;39.75;26.30;;;;;;;-5.18;100.00;98468.34;2080857;28;20672;-80
2021/01/17 00:16:55;;;;;;;45.63;27.13;;;;;;;-5.19;100.00;98464.16;2080524;28;20223;-81
2021/01/17 00:17:57;;;;;;;45.07;28.83;;;;;;;-5.17;100.00;98459.53;2080767;28;20310;-81
2021/01/17 00:18:58;;;;;;;48.53;29.95;;;;;;;-5.22;100.00;98451.56;2080759;28;20632;-81
2021/01/17 00:20:00;;;;;;;44.33;26.77;;;;;;;-5.16;100.00;98481.13;2080498;28;20219;-81
2021/01/17 00:21:02;;;;;;;42.22;26.75;;;;;;;-5.19;100.00;98466.75;2080936;28;20261;-81
2021/01/17 00:22:03;;;;;;;41.17;26.27;;;;;;;-5.23;100.00;98452.56;2080555;28;20674;-81
2021/01/17 00:23:06;;;;;;;44.37;26.67;;;;;;;-5.17;100.00;98462.13;2081435;28;20574;-81
2021/01/17 00:24:08;;;;;;;44.03;27.40;;;;;;;-5.10;100.00;98471.72;2080299;28;20543;-80
2021/01/17 00:25:11;;;;;;;44.42;26.63;;;;;;;-5.14;100.00;98500.72;2080604;28;20310;-81
2021/01/17 00:26:12;;;;;;;46.35;27.95;;;;;;;-5.23;100.00;98460.38;2080886;28;20927;-81
2021/01/17 00:27:13;;;;;;;50.47;25.70;;;;;;;-5.15;100.00;98460.13;2080860;28;20655;-81
2021/01/17 00:28:14;;;;;;;43.30;24.92;;;;;;;-5.07;100.00;98484.28;2080964;28;20291;-81
2021/01/17 00:29:15;;;;;;;45.03;26.27;;;;;;;-5.15;100.00;98467.91;2080473;28;20224;-81
2021/01/17 00:30:19;;;;;;;42.05;26.63;;;;;;;-5.06;100.00;98480.69;2072243;28;20236;-81
2021/01/17 00:31:20;;;;;;;45.80;26.10;;;;;;;-5.08;100.00;98475.69;2081236;28;20223;-81
2021/01/17 00:32:21;;;;;;;46.25;26.08;;;;;;;-5.16;100.00;98466.34;2097179;28;20230;-81
2021/01/17 00:33:22;;;;;;;42.77;26.43;;;;;;;-5.18;100.00;98460.56;2086174;28;20237;-81
2021/01/17 00:34:23;;;;;;;37.85;24.70;;;;;;;-5.04;100.00;98483.84;2080701;28;20223;-81
2021/01/17 00:35:26;;;;;;;43.80;26.77;;;;;;;-5.19;100.00;98466.75;2081186;28;20227;-81
2021/01/17 00:36:28;;;;;;;42.05;25.25;;;;;;;-5.05;100.00;98492.66;2081342;28;20824;-81
2021/01/17 00:37:29;;;;;;;37.60;25.27;;;;;;;-5.07;100.00;98492.09;2080446;28;20243;-81
2021/01/17 00:38:30;;;;;;;45.60;26.60;;;;;;;-5.07;100.00;98494.69;2072340;28;20307;-81
2021/01/17 00:39:31;;;;;;;45.20;26.37;;;;;;;-5.09;100.00;98494.91;2080726;28;20330;-81
2021/01/17 00:40:32;;;;;;;47.25;27.45;;;;;;;-5.07;100.00;98508.50;2080474;28;20232;-81
2021/01/17 00:41:34;;;;;;;47.47;28.40;;;;;;;-5.08;100.00;98504.31;2080551;28;20227;-81
2021/01/17 00:42:35;;;;;;;46.45;28.30;;;;;;;-5.10;100.00;98508.13;2080462;28;20314;-81
2021/01/17 00:43:37;;;;;;;41.90;26.67;;;;;;;-5.16;100.00;98505.34;2080405;28;20219;-81
2021/01/17 00:44:38;;;;;;;43.28;27.63;;;;;;;-5.16;100.00;98507.94;2079956;28;20251;-81
2021/01/17 00:45:40;;;;;;;43.92;25.50;;;;;;;-5.13;100.00;98517.91;2072434;28;20243;-81
2021/01/17 00:46:40;;;;;;;50.42;26.52;;;;;;;-5.06;100.00;98528.28;2080236;28;20230;-81
2021/01/17 00:47:45;;;;;;;42.97;26.10;;;;;;;-5.00;100.00;98532.66;2072255;28;20290;-81
2021/01/17 00:48:46;;;;;;;40.17;25.17;;;;;;;-5.05;100.00;98529.09;2072685;28;20585;-81
2021/01/17 00:49:47;;;;;;;41.17;26.00;;;;;;;-5.06;100.00;98524.88;2072063;28;20228;-81
2021/01/17 00:50:53;;;;;;;43.67;23.08;;;;;;;-5.01;100.00;98530.28;2072494;28;20459;-81
2021/01/17 00:51:56;;;;;;;41.97;25.45;;;;;;;-5.03;100.00;98533.09;2080324;28;20227;-82
2021/01/17 00:52:57;;;;;;;49.40;26.70;;;;;;;-5.01;100.00;98530.28;2080497;28;20231;-81
2021/01/17 00:54:12;;;;;;;46.17;27.40;;;;;;;-5.06;100.00;98527.50;2073556;28;20279;-81
2021/01/17 00:55:13;;;;;;;44.20;25.95;;;;;;;-5.01;100.00;98527.69;2080395;28;20226;-81
2021/01/17 00:56:23;;;;;;;46.60;27.63;;;;;;;-5.06;100.00;98530.09;2080069;28;20266;-81
2021/01/17 00:57:26;;;;;;;47.08;27.73;;;;;;;-5.23;100.00;98499.38;2080037;28;20231;-81
2021/01/17 00:58:28;;;;;;;45.20;25.08;;;;;;;-5.01;100.00;98530.28;2080281;28;20235;-82
2021/01/17 00:59:36;;;;;;;44.22;25.85;;;;;;;-5.05;100.00;98519.47;2089513;28;20343;-81
2021/01/17 01:00:37;;;;;;;45.43;26.33;;;;;;;-5.04;100.00;98528.06;2096525;28;20225;-81
2021/01/17 01:01:46;;;;;;;40.60;22.77;;;;;;;-5.05;100.00;98523.88;2080371;28;20237;-81
2021/01/17 01:02:48;;;;;;;42.35;22.48;;;;;;;-5.02;100.00;98529.47;2080445;28;20219;-82
2021/01/17 01:03:48;;;;;;;36.65;22.38;;;;;;;-5.46;100.00;98457.50;2081125;28;20678;-81
2021/01/17 01:04:50;;;;;;;36.33;21.73;;;;;;;-5.07;100.00;98512.91;2080478;28;20639;-82
2021/01/17 01:05:51;;;;;;;30.95;19.13;;;;;;;-5.05;100.00;98526.47;2072002;28;20212;-81
2021/01/17 01:06:52;;;;;;;26.75;18.90;;;;;;;-5.15;100.00;98513.94;2065604;28;20237;-79
2021/01/17 01:07:54;;;;;;;31.80;20.42;;;;;;;-5.08;100.00;98519.91;2072214;28;20227;-79
2021/01/17 01:08:55;;;;;;;27.85;19.88;;;;;;;-5.07;100.00;98516.28;2088151;28;20791;-80
2021/01/17 01:09:57;;;;;;;34.00;20.75;;;;;;;-4.99;100.00;98521.25;2088399;28;20233;-80
2021/01/17 01:10:58;;;;;;;24.00;18.20;;;;;;;-4.95;100.00;98529.41;2088558;28;20277;-79
2021/01/17 01:11:59;;;;;;;27.80;19.55;;;;;;;-5.05;100.00;98513.47;2080023;28;20297;-79
2021/01/17 01:13:00;;;;;;;24.37;19.13;;;;;;;-4.98;100.00;98519.44;2077353;28;20355;-80
2021/01/17 01:14:01;;;;;;;20.05;16.83;;;;;;;-5.02;100.00;98523.47;2080554;28;20227;-80
2021/01/17 01:15:03;;;;;;;20.87;16.90;;;;;;;-4.90;100.00;98521.81;2072083;28;20310;-80
2021/01/17 01:16:05;;;;;;;21.10;16.67;;;;;;;-4.93;100.00;98522.22;2072879;28;20282;-80
2021/01/17 01:17:06;;;;;;;21.02;17.13;;;;;;;-4.91;100.00;98517.59;2072197;28;20299;-80
2021/01/17 01:18:07;;;;;;;22.83;15.73;;;;;;;-4.92;100.00;98513.41;2067658;28;20307;-80
2021/01/17 01:19:08;;;;;;;17.00;15.20;;;;;;;-5.02;100.00;98506.06;2072356;28;20241;-80
2021/01/17 01:20:10;;;;;;;19.45;15.75;;;;;;;-4.89;100.00;98518.19;2094921;28;20261;-81
2021/01/17 01:21:12;;;;;;;17.05;15.13;;;;;;;-4.87;100.00;98526.56;2088373;28;20226;-81
2021/01/17 01:22:13;;;;;;;16.95;15.05;;;;;;;-4.94;100.00;98518.84;2080148;28;20226;-81
2021/01/17 01:23:15;;;;;;;17.53;14.57;;;;;;;-4.89;100.00;98524.19;2080292;28;20230;-81
2021/01/17 01:24:16;;;;;;;17.52;13.88;;;;;;;-4.96;100.00;98514.81;2080096;28;20578;-81
2021/01/17 01:25:17;;;;;;;16.48;14.75;;;;;;;-4.95;100.00;98524.22;2080213;28;20219;-81
2021/01/17 01:26:21;;;;;;;15.65;14.15;;;;;;;-4.98;100.00;98516.84;2080430;28;20239;-80
2021/01/17 01:27:22;;;;;;;16.85;14.45;;;;;;;-4.89;100.00;98529.38;2079708;28;20262;-81
2021/01/17 01:28:23;;;;;;;17.15;15.40;;;;;;;-4.89;100.00;98523.38;2080196;28;20776;-81
2021/01/17 01:29:25;;;;;;;17.70;15.47;;;;;;;-4.92;100.00;98523.81;2080216;28;20679;-81
2021/01/17 01:30:26;;;;;;;18.90;16.00;;;;;;;-4.98;100.00;98527.25;2080126;28;20246;-81
2021/01/17 01:31:27;;;;;;;16.95;14.93;;;;;;;-5.19;100.00;98497.97;2080101;28;20223;-81
2021/01/17 01:32:28;;;;;;;15.30;13.82;;;;;;;-4.96;100.00;98527.81;2080291;28;20226;-81
2021/01/17 01:33:29;;;;;;;16.10;14.05;;;;;;;-4.98;100.00;98532.44;2080421;28;20618;-81
2021/01/17 01:34:30;;;;;;;16.80;14.43;;;;;;;-5.12;100.00;98522.13;2080358;28;20235;-81
2021/01/17 01:35:31;;;;;;;17.30;15.50;;;;;;;-5.03;100.00;98527.88;2079781;28;20682;-81
2021/01/17 01:36:34;;;;;;;14.67;13.27;;;;;;;-4.98;100.00;98535.84;2079687;28;20586;-82
2021/01/17 01:37:35;;;;;;;19.73;16.00;;;;;;;-5.03;100.00;98527.88;2080251;28;20230;-81
2021/01/17 01:38:37;;;;;;;16.90;14.93;;;;;;;-5.04;100.00;98536.66;2079886;28;20238;-82
2021/01/17 01:39:39;;;;;;;16.10;14.43;;;;;;;-5.12;100.00;98524.72;2079434;28;20721;-82
2021/01/17 01:40:40;;;;;;;16.05;14.25;;;;;;;-5.00;100.00;98537.06;2080043;28;20231;-81
2021/01/17 01:41:42;;;;;;;17.00;14.33;;;;;;;-5.16;100.00;98520.94;2080090;28;20717;-80
2021/01/17 01:42:43;;;;;;;15.98;13.95;;;;;;;-5.15;100.00;98525.13;2080597;28;20223;-81
2021/01/17 01:43:45;;;;;;;15.45;13.85;;;;;;;-5.15;100.00;98524.34;2079935;28;20686;-81
2021/01/17 01:44:46;;;;;;;15.80;14.20;;;;;;;-5.07;100.00;98541.50;2080192;28;20226;-81
2021/01/17 01:45:47;;;;;;;15.80;14.30;;;;;;;-5.12;100.00;98542.13;2080054;28;20269;-81
2021/01/17 01:46:55;;;;;;;14.73;13.25;;;;;;;-5.29;100.00;98528.81;2080109;28;20239;-79
2021/01/17 01:47:56;;;;;;;15.68;14.10;;;;;;;-5.21;100.00;98543.38;2079816;28;20303;-81
2021/01/17 01:48:59;;;;;;;17.50;14.48;;;;;;;-5.25;100.00;98535.19;2071773;28;20284;-81
2021/01/17 01:50:01;;;;;;;16.77;14.98;;;;;;;-5.26;100.00;98528.41;2080365;28;20809;-81
2021/01/17 01:51:02;;;;;;;16.60;14.80;;;;;;;-5.19;100.00;98546.56;2071827;28;20216;-80
2021/01/17 01:52:04;;;;;;;15.40;14.00;;;;;;;-5.17;100.00;98542.75;2088437;28;20284;-81
2021/01/17 01:53:05;;;;;;;16.35;14.65;;;;;;;-5.17;100.00;98547.94;2088069;28;20749;-80
2021/01/17 01:54:09;;;;;;;16.83;15.07;;;;;;;-5.42;100.00;98513.25;2079983;28;20605;-81
2021/01/17 01:55:11;;;;;;;16.60;14.57;;;;;;;-5.37;100.00;98530.84;2080395;28;20223;-81
2021/01/17 01:56:13;;;;;;;17.25;13.93;;;;;;;-5.29;100.00;98549.63;2080488;28;20242;-80
2021/01/17 01:57:14;;;;;;;15.07;13.57;;;;;;;-5.28;100.00;98546.00;2080756;28;20220;-80
2021/01/17 01:58:18;;;;;;;17.50;14.43;;;;;;;-5.32;100.00;98547.41;2079847;28;20258;-81
2021/01/17 01:59:20;;;;;;;15.35;13.63;;;;;;;-5.21;100.00;98554.59;2079801;28;20227;-81
2021/01/17 02:00:22;;;;;;;15.13;13.13;;;;;;;-5.24;100.00;98562.78;2079977;28;20222;-80
2021/01/17 02:01:23;;;;;;;15.25;13.70;;;;;;;-5.41;100.00;98554.63;2079344;28;20307;-81
2021/01/17 02:02:24;;;;;;;15.38;13.77;;;;;;;-5.39;100.00;98567.41;2080150;28;20223;-80
2021/01/17 02:03:25;;;;;;;16.23;14.65;;;;;;;-5.70;100.00;98524.75;2079771;28;20647;-80
2021/01/17 02:04:26;;;;;;;18.47;15.60;;;;;;;-5.56;100.00;98543.72;2079851;28;20293;-80
2021/01/17 02:05:27;;;;;;;18.35;16.65;;;;;;;-5.49;100.00;98575.66;2087931;28;20655;-81
2021/01/17 02:06:29;;;;;;;18.47;16.17;;;;;;;-5.63;100.00;98555.91;2096276;28;20226;-80
2021/01/17 02:07:47;;;;;;;19.00;17.00;;;;;;;-5.53;100.00;98581.47;2079576;28;20693;-80
2021/01/17 02:09:15;;;;;;;17.90;15.98;;;;;;;-5.62;100.00;98582.69;2079616;28;20223;-80
2021/01/17 02:10:17;;;;;;;17.48;14.88;;;;;;;-5.93;100.00;98542.63;2079365;28;20230;-80
2021/01/17 02:11:26;;;;;;;18.88;15.73;;;;;;;-5.75;100.00;98578.31;2071805;28;20659;-80
2021/01/17 02:12:29;;;;;;;17.92;15.10;;;;;;;-5.73;100.00;98587.53;2070248;28;20232;-80
2021/01/17 02:13:34;;;;;;;20.63;16.23;;;;;;;-5.82;100.00;98580.94;2071921;28;20284;-80
2021/01/17 02:14:45;;;;;;;19.10;16.60;;;;;;;-5.83;100.00;98588.91;2072017;28;20230;-80
2021/01/17 02:15:48;;;;;;;16.63;14.95;;;;;;;-6.04;100.00;98569.19;2079570;28;20357;-80
2021/01/17 02:16:52;;;;;;;19.13;15.63;;;;;;;-5.97;100.00;98588.19;2080874;28;20223;-81
2021/01/17 02:17:53;;;;;;;25.98;18.23;;;;;;;-5.88;100.00;98599.91;2079641;28;20669;-81
2021/01/17 02:18:55;;;;;;;22.07;17.43;;;;;;;-5.91;100.00;98599.53;2071785;28;20219;-81
2021/01/17 02:20:10;;;;;;;18.45;16.75;;;;;;;-6.14;100.00;98586.97;2088337;28;20979;-81
2021/01/17 02:21:12;;;;;;;20.88;18.67;;;;;;;-6.21;100.00;98591.38;2092505;28;20229;-80
2021/01/17 02:22:13;;;;;;;21.38;18.23;;;;;;;-6.18;100.00;98591.75;2080503;28;20215;-80
2021/01/17 02:23:17;;;;;;;25.20;17.92;;;;;;;-6.18;100.00;98601.34;2079827;28;20234;-80
2021/01/17 02:24:20;;;;;;;24.08;19.25;;;;;;;-6.38;100.00;98583.97;2081284;28;20702;-80
2021/01/17 02:25:22;;;;;;;21.17;18.67;;;;;;;-6.30;100.00;98598.56;2080531;28;20215;-80
2021/01/17 02:26:23;;;;;;;21.13;18.75;;;;;;;-6.33;100.00;98597.16;2079493;28;20609;-81
2021/01/17 02:27:25;;;;;;;18.83;16.90;;;;;;;-6.47;100.00;98585.16;2079617;28;20223;-80
2021/01/17 02:28:26;;;;;;;19.98;16.95;;;;;;;-6.46;100.00;98588.56;2079730;28;20223;-82
2021/01/17 02:29:28;;;;;;;22.80;17.60;;;;;;;-6.51;100.00;98583.19;2080028;28;20273;-80
2021/01/17 02:30:32;;;;;;;23.77;17.65;;;;;;;-6.40;100.00;98605.94;2079675;28;20298;-79
2021/01/17 02:31:34;;;;;;;21.92;18.13;;;;;;;-6.51;100.00;98596.94;2080024;28;20345;-81
2021/01/17 02:32:41;;;;;;;20.90;17.40;;;;;;;-6.57;100.00;98592.53;2080784;28;20246;-81
2021/01/17 02:33:42;;;;;;;24.52;17.25;;;;;;;-6.46;100.00;98604.13;2080218;28;20258;-80
2021/01/17 02:34:44;;;;;;;23.05;18.42;;;;;;;-6.58;100.00;98596.94;2080178;28;20310;-81
2021/01/17 02:35:46;;;;;;;20.38;16.30;;;;;;;-6.52;100.00;98620.47;2079685;28;20215;-80
2021/01/17 02:36:52;;;;;;;25.08;18.15;;;;;;;-6.61;100.00;98606.88;2080258;28;20302;-80
2021/01/17 02:37:59;;;;;;;26.08;19.92;;;;;;;-6.76;100.00;98603.69;2079591;28;20305;-80
2021/01/17 02:39:06;;;;;;;20.80;18.33;;;;;;;-6.60;100.00;98608.50;2072117;28;20224;-80
2021/01/17 02:40:09;;;;;;;21.38;19.08;;;;;;;-6.65;100.00;98606.50;2071982;28;20720;-80
2021/01/17 02:41:17;;;;;;;19.35;17.33;;;;;;;-6.69;100.00;98599.28;2079678;28;20705;-80
2021/01/17 02:42:18;;;;;;;18.83;16.60;;;;;;;-6.70;100.00;98605.47;2079252;28;20285;-80
2021/01/17 02:43:20;;;;;;;19.70;15.97;;;;;;;-6.74;100.00;98609.47;2079598;28;20220;-80
2021/01/17 02:44:21;;;;;;;20.92;15.50;;;;;;;-6.88;100.00;98622.38;2079722;28;20708;-82
2021/01/17 02:45:22;;;;;;;32.47;17.45;;;;;;;-6.96;100.00;98613.97;2079301;28;20307;-78
2021/01/17 02:46:23;;;;;;;17.35;15.55;;;;;;;-6.97;100.00;98618.34;2079485;28;20373;-82
2021/01/17 02:47:25;;;;;;;16.67;14.90;;;;;;;-7.08;100.00;98621.50;2079285;28;20301;-82
2021/01/17 02:48:25;;;;;;;26.48;18.80;;;;;;;-7.07;100.00;98611.94;2079491;28;20263;-82
2021/01/17 02:49:27;;;;;;;24.43;19.00;;;;;;;-7.05;100.00;98613.34;2071341;28;20228;-82
2021/01/17 02:50:28;;;;;;;25.00;18.80;;;;;;;-7.12;100.00;98626.28;2079880;28;20242;-80
2021/01/17 02:51:30;;;;;;;16.50;14.73;;;;;;;-7.13;100.00;98629.06;2079615;28;20320;-82
2021/01/17 02:52:36;;;;;;;20.90;15.85;;;;;;;-7.16;100.00;98619.09;2079527;28;20713;-82
2021/01/17 02:53:41;;;;;;;23.98;19.70;;;;;;;-7.16;100.00;98634.63;2079039;28;20811;-81
2021/01/17 02:54:43;;;;;;;21.77;18.23;;;;;;;-7.20;100.00;98629.06;2079721;28;20765;-82
2021/01/17 02:55:44;;;;;;;25.38;19.67;;;;;;;-7.34;100.00;98616.22;2079310;28;20693;-82
2021/01/17 02:56:57;;;;;;;21.13;18.38;;;;;;;-7.36;100.00;98620.78;2079625;28;20226;-82
2021/01/17 02:57:59;;;;;;;21.75;19.02;;;;;;;-7.34;100.00;98631.75;2079990;28;20660;-82
2021/01/17 02:59:05;;;;;;;21.88;17.95;;;;;;;-7.37;100.00;98637.34;2080689;28;20656;-82
2021/01/17 03:00:09;;;;;;;22.42;18.65;;;;;;;-7.44;100.00;98632.91;2079137;28;20302;-82
2021/01/17 03:01:11;;;;;;;20.33;17.58;;;;;;;-7.54;100.00;98616.91;2071351;28;20224;-81
2021/01/17 03:02:14;;;;;;;20.23;18.08;;;;;;;-7.44;100.00;98648.44;2071783;28;20330;-81
2021/01/17 03:03:17;;;;;;;24.73;17.65;;;;;;;-7.53;100.00;98635.84;2079554;28;20227;-81
2021/01/17 03:04:21;;;;;;;23.05;17.67;;;;;;;-7.62;100.00;98634.38;2080202;28;20230;-81
2021/01/17 03:05:23;;;;;;;20.70;17.67;;;;;;;-7.56;100.00;98642.19;2095519;28;20259;-80
2021/01/17 03:06:26;;;;;;;21.65;17.33;;;;;;;-7.56;100.00;98644.78;2087304;28;20677;-81
2021/01/17 03:07:30;;;;;;;19.17;17.23;;;;;;;-7.73;100.00;98638.28;2079624;28;20231;-81
2021/01/17 03:08:31;;;;;;;22.90;18.70;;;;;;;-7.72;100.00;98639.91;2087316;28;20226;-81
2021/01/17 03:09:32;;;;;;;20.77;16.87;;;;;;;-7.75;100.00;98646.25;2079663;28;20257;-81
2021/01/17 03:10:33;;;;;;;20.95;17.65;;;;;;;-7.87;100.00;98639.19;2071257;28;20857;-81
2021/01/17 03:11:35;;;;;;;22.98;17.50;;;;;;;-7.87;100.00;98642.59;2079559;28;20227;-81
2021/01/17 03:12:37;;;;;;;19.83;16.38;;;;;;;-7.84;100.00;98642.19;2080256;28;20297;-82
2021/01/17 03:13:38;;;;;;;19.63;16.83;;;;;;;-7.83;100.00;98655.94;2079919;28;20238;-81
2021/01/17 03:14:39;;;;;;;21.23;16.85;;;;;;;-7.80;100.00;98653.00;2079185;28;20313;-81
2021/01/17 03:15:41;;;;;;;19.98;17.73;;;;;;;-7.84;100.00;98657.72;2079595;28;20602;-81
2021/01/17 03:16:42;;;;;;;19.80;17.70;;;;;;;-7.97;100.00;98652.47;2079373;28;20697;-81
2021/01/17 03:17:43;;;;;;;21.90;16.80;;;;;;;-7.95;100.00;98654.84;2071059;28;20602;-81
2021/01/17 03:18:44;;;;;;;20.88;16.17;;;;;;;-8.01;100.00;98657.19;2087582;28;20638;-81
2021/01/17 03:19:45;;;;;;;25.60;17.00;;;;;;;-8.01;100.00;98662.38;2087647;28;20219;-81
2021/01/17 03:20:46;;;;;;;20.45;16.50;;;;;;;-8.07;100.00;98652.78;2071335;28;20228;-81
2021/01/17 03:21:47;;;;;;;19.77;17.57;;;;;;;-8.16;100.00;98653.91;2079684;28;20223;-81
2021/01/17 03:22:48;;;;;;;21.48;17.52;;;;;;;-8.16;100.00;98668.63;2080263;28;20298;-81
2021/01/17 03:23:50;;;;;;;21.40;16.07;;;;;;;-8.12;100.00;98669.84;2079759;28;20219;-82
2021/01/17 03:24:50;;;;;;;20.17;16.25;;;;;;;-8.15;100.00;98671.03;2079592;28;20741;-81
2021/01/17 03:25:52;;;;;;;21.87;16.97;;;;;;;-8.28;100.00;98660.53;2079515;28;20565;-81
2021/01/17 03:26:53;;;;;;;20.15;15.52;;;;;;;-8.30;100.00;98672.88;2079062;28;20326;-82
2021/01/17 03:27:55;;;;;;;21.63;17.58;;;;;;;-8.28;100.00;98676.06;2080229;28;20227;-81
2021/01/17 03:28:56;;;;;;;20.40;17.52;;;;;;;-8.40;100.00;98664.66;2080285;28;20658;-82
2021/01/17 03:29:57;;;;;;;18.83;16.90;;;;;;;-8.31;100.00;98676.44;2079909;28;20223;-81
2021/01/17 03:30:58;;;;;;;23.65;18.35;;;;;;;-8.55;100.00;98659.50;2071252;28;20259;-81
2021/01/17 03:31:59;;;;;;;18.60;16.53;;;;;;;-8.63;100.00;98668.19;2071302;28;20251;-81
2021/01/17 03:33:00;;;;;;;20.23;17.98;;;;;;;-8.58;100.00;98673.63;2071355;28;20227;-81
2021/01/17 03:34:02;;;;;;;18.60;16.70;;;;;;;-8.53;100.00;98688.56;2071240;28;20286;-81
2021/01/17 03:35:03;;;;;;;20.25;16.90;;;;;;;-8.67;100.00;98666.16;2079471;28;20276;-81
2021/01/17 03:36:05;;;;;;;19.50;17.00;;;;;;;-8.61;100.00;98671.38;2095725;28;20226;-81
2021/01/17 03:37:06;;;;;;;20.70;18.27;;;;;;;-8.66;100.00;98686.66;2095639;28;20252;-81
2021/01/17 03:38:07;;;;;;;18.87;16.77;;;;;;;-8.73;100.00;98688.34;2078987;28;20223;-81
2021/01/17 03:39:08;;;;;;;21.77;17.33;;;;;;;-8.86;100.00;98673.50;2071221;28;20227;-80
2021/01/17 03:40:10;;;;;;;17.93;16.00;;;;;;;-8.82;100.00;98701.56;2079346;28;20698;-81
2021/01/17 03:41:12;;;;;;;25.67;16.05;;;;;;;-8.79;100.00;98686.50;2079439;28;20712;-81
2021/01/17 03:42:13;;;;;;;20.05;15.95;;;;;;;-8.98;100.00;98651.69;2079906;28;20262;-81
2021/01/17 03:43:15;;;;;;;18.52;16.50;;;;;;;-8.84;100.00;98691.41;2079299;28;20223;-80
2021/01/17 03:44:16;;;;;;;18.67;16.73;;;;;;;-8.89;100.00;98698.91;2071366;28;20679;-81
2021/01/17 03:45:17;;;;;;;17.73;15.95;;;;;;;-8.99;100.00;98680.28;2071431;28;20239;-81
2021/01/17 03:46:18;;;;;;;18.40;16.43;;;;;;;-8.94;100.00;98683.16;2079485;28;20215;-81
2021/01/17 03:47:19;;;;;;;22.63;17.30;;;;;;;-8.97;100.00;98688.66;2079345;28;20243;-80
2021/01/17 03:48:21;;;;;;;18.43;16.53;;;;;;;-9.05;100.00;98681.78;2079673;28;20269;-80
2021/01/17 03:49:22;;;;;;;18.88;16.98;;;;;;;-9.15;100.00;98678.69;2093229;28;20272;-79
2021/01/17 03:50:23;;;;;;;18.00;16.30;;;;;;;-9.06;100.00;98698.28;2087420;28;20276;-80
2021/01/17 03:51:24;;;;;;;18.55;16.65;;;;;;;-9.23;100.00;98666.66;2079481;28;20770;-80
2021/01/17 03:52:25;;;;;;;17.13;15.65;;;;;;;-9.13;100.00;98693.03;2080125;28;20625;-80
2021/01/17 03:53:26;;;;;;;20.10;16.27;;;;;;;-9.38;100.00;98647.81;2079425;28;20615;-80
2021/01/17 03:54:27;;;;;;;18.03;16.23;;;;;;;-9.19;100.00;98691.19;2079192;28;20223;-80
2021/01/17 03:55:29;;;;;;;19.50;17.48;;;;;;;-9.20;100.00;98697.31;2071346;28;20722;-80
2021/01/17 03:56:29;;;;;;;17.20;15.65;;;;;;;-9.37;100.00;98670.06;2071644;28;20247;-80
2021/01/17 03:57:31;;;;;;;19.03;17.03;;;;;;;-9.26;100.00;98692.06;2079417;28;20705;-80
2021/01/17 03:58:32;;;;;;;19.50;17.35;;;;;;;-9.35;100.00;98696.50;2080189;28;20765;-81
2021/01/17 03:59:34;;;;;;;17.67;16.00;;;;;;;-9.30;100.00;98699.34;2080651;28;20231;-80
2021/01/17 04:00:35;;;;;;;19.48;16.33;;;;;;;-9.29;100.00;98698.41;2081768;28;20642;-80
2021/01/17 04:01:36;;;;;;;18.10;16.20;;;;;;;-9.34;100.00;98690.38;2081131;28;20224;-80
2021/01/17 04:02:37;;;;;;;20.80;18.17;;;;;;;-9.49;100.00;98674.06;2074413;28;20234;-80
2021/01/17 04:03:38;;;;;;;21.80;17.77;;;;;;;-9.41;100.00;98694.63;2095356;28;20226;-80
2021/01/17 04:04:39;;;;;;;26.63;17.92;;;;;;;-9.57;100.00;98684.47;2097638;28;20696;-80
2021/01/17 04:05:40;;;;;;;25.33;17.00;;;;;;;-9.58;100.00;98680.28;2080590;28;20572;-80
2021/01/17 04:06:41;;;;;;;21.08;17.35;;;;;;;-9.67;100.00;98666.66;2081223;28;21007;-80
2021/01/17 04:07:43;;;;;;;19.43;16.07;;;;;;;-9.68;100.00;98673.59;2080863;28;20639;-80
2021/01/17 04:08:43;;;;;;;19.88;17.08;;;;;;;-9.66;100.00;98691.47;2080713;28;20223;-81
2021/01/17 04:09:45;;;;;;;19.97;16.87;;;;;;;-9.59;100.00;98696.75;2072675;28;20590;-80
2021/01/17 04:10:46;;;;;;;20.05;16.42;;;;;;;-9.83;100.00;98674.53;2072525;28;20239;-80
2021/01/17 04:11:48;;;;;;;21.33;17.10;;;;;;;-9.68;100.00;98699.41;2080891;28;20227;-81
2021/01/17 04:12:49;;;;;;;20.58;17.85;;;;;;;-9.72;100.00;98687.84;2080957;28;20224;-79
2021/01/17 04:13:51;;;;;;;20.47;18.37;;;;;;;-9.89;100.00;98678.63;2080832;28;20239;-80
2021/01/17 04:14:54;;;;;;;20.17;16.90;;;;;;;-9.81;100.00;98688.09;2086379;28;20226;-79
2021/01/17 04:15:56;;;;;;;21.20;17.45;;;;;;;-9.76;100.00;98699.47;2080557;28;20219;-79
2021/01/17 04:16:57;;;;;;;22.98;17.38;;;;;;;-9.77;100.00;98708.19;2080919;28;20235;-79
2021/01/17 04:17:58;;;;;;;20.73;16.97;;;;;;;-9.84;100.00;98703.91;2080870;28;20216;-79
2021/01/17 04:18:59;;;;;;;18.95;15.50;;;;;;;-9.88;100.00;98706.03;2080686;28;20458;-80
2021/01/17 04:20:00;;;;;;;17.47;15.73;;;;;;;-9.91;100.00;98703.78;2089252;28;20222;-82
2021/01/17 04:21:01;;;;;;;20.83;16.90;;;;;;;-9.99;100.00;98707.25;2080663;28;20476;-79
2021/01/17 04:22:02;;;;;;;19.30;17.40;;;;;;;-10.21;100.00;98676.31;2080727;28;20246;-80
2021/01/17 04:23:04;;;;;;;23.00;18.65;;;;;;;-10.08;100.00;98710.03;2097142;28;20815;-80
2021/01/17 04:24:06;;;;;;;20.33;18.25;;;;;;;-10.48;100.00;98652.69;2088866;28;20222;-79
2021/01/17 04:25:07;;;;;;;21.00;18.77;;;;;;;-10.22;100.00;98688.44;2080581;28;20365;-80
2021/01/17 04:26:09;;;;;;;22.92;17.58;;;;;;;-10.27;100.00;98693.28;2080744;28;20243;-80
2021/01/17 04:27:10;;;;;;;21.98;18.35;;;;;;;-10.17;100.00;98711.06;2080787;28;20306;-79
2021/01/17 04:28:12;;;;;;;25.43;18.27;;;;;;;-10.41;100.00;98684.53;2081438;28;20219;-80
2021/01/17 04:29:13;;;;;;;21.27;18.55;;;;;;;-10.22;100.00;98716.00;2081379;28;20223;-80
2021/01/17 04:30:16;;;;;;;22.85;18.73;;;;;;;-10.28;100.00;98713.13;2081257;28;20290;-79
2021/01/17 04:31:17;;;;;;;21.70;18.75;;;;;;;-10.24;100.00;98712.78;2081413;28;20581;-80
2021/01/17 04:32:18;;;;;;;23.03;17.50;;;;;;;-10.26;100.00;98712.94;2081520;28;20251;-80
2021/01/17 04:33:19;;;;;;;18.90;16.75;;;;;;;-10.16;100.00;98718.66;2080692;28;20228;-79
2021/01/17 04:34:22;;;;;;;24.83;17.05;;;;;;;-10.16;100.00;98717.84;2078381;28;20317;-80
2021/01/17 04:35:23;;;;;;;18.42;16.50;;;;;;;-10.11;100.00;98721.53;2080287;28;20274;-79
2021/01/17 04:36:24;;;;;;;19.92;16.77;;;;;;;-10.08;100.00;98722.94;2080262;28;20298;-79
2021/01/17 04:37:25;;;;;;;21.90;18.00;;;;;;;-10.24;100.00;98705.84;2072311;28;20227;-81
2021/01/17 04:38:27;;;;;;;25.37;17.60;;;;;;;-10.15;100.00;98709.16;2080651;28;20234;-79
2021/01/17 04:39:27;;;;;;;22.02;18.42;;;;;;;-10.11;100.00;98728.47;2080649;28;20223;-79
2021/01/17 04:40:30;;;;;;;21.60;18.20;;;;;;;-10.04;100.00;98726.81;2080383;28;20224;-79
2021/01/17 04:41:33;;;;;;;22.67;18.10;;;;;;;-10.08;100.00;98736.63;2072451;28;20671;-80
2021/01/17 04:42:36;;;;;;;20.60;18.02;;;;;;;-10.21;100.00;98726.09;2080674;28;20618;-80